sensor_id;sensor_type;location;lat;lon;timestamp;pressure;altitude;pressure_sealevel;temperature;humidity
48926;BME280;39838;59.938;30.642;2023-06-05T00:01:22;100661.47;;;9.19;82.45
48926;BME280;39838;59.938;30.642;2023-06-05T00:03:49;100655.44;;;9.19;82.57
48926;BME280;39838;59.938;30.642;2023-06-05T00:06:19;100662.34;;;9.18;82.67
48926;BME280;39838;59.938;30.642;2023-06-05T00:08:46;100660.59;;;9.17;82.70
48926;BME280;39838;59.938;30.642;2023-06-05T00:11:14;100658.88;;;9.15;82.39
48926;BME280;39838;59.938;30.642;2023-06-05T00:13:41;100658.81;;;9.10;82.83
48926;BME280;39838;59.938;30.642;2023-06-05T00:16:09;100659.63;;;9.08;83.37
48926;BME280;39838;59.938;30.642;2023-06-05T00:18:36;100660.50;;;9.05;82.63
48926;BME280;39838;59.938;30.642;2023-06-05T00:21:03;100662.22;;;9.01;82.90
48926;BME280;39838;59.938;30.642;2023-06-05T00:23:31;100669.94;;;9.00;83.44
48926;BME280;39838;59.938;30.642;2023-06-05T00:25:58;100664.75;;;8.98;83.64
48926;BME280;39838;59.938;30.642;2023-06-05T00:28:27;100669.94;;;8.98;83.51
48926;BME280;39838;59.938;30.642;2023-06-05T00:30:54;100667.34;;;8.95;83.80
48926;BME280;39838;59.938;30.642;2023-06-05T00:33:21;100663.84;;;8.93;83.82
48926;BME280;39838;59.938;30.642;2023-06-05T00:35:48;100671.59;;;8.92;82.98
48926;BME280;39838;59.938;30.642;2023-06-05T00:38:16;100662.97;;;8.90;83.82
48926;BME280;39838;59.938;30.642;2023-06-05T00:40:43;100657.78;;;8.90;83.61
48926;BME280;39838;59.938;30.642;2023-06-05T00:43:10;100667.28;;;8.91;83.51
48926;BME280;39838;59.938;30.642;2023-06-05T00:45:39;100673.31;;;8.91;84.34
48926;BME280;39838;59.938;30.642;2023-06-05T00:48:07;100679.41;;;8.95;84.03
48926;BME280;39838;59.938;30.642;2023-06-05T00:50:34;100673.41;;;8.99;84.13
48926;BME280;39838;59.938;30.642;2023-06-05T00:53:03;100683.81;;;9.02;84.24
48926;BME280;39838;59.938;30.642;2023-06-05T00:55:33;100684.72;;;9.09;84.38
48926;BME280;39838;59.938;30.642;2023-06-05T00:58:01;100683.88;;;9.14;83.79
48926;BME280;39838;59.938;30.642;2023-06-05T01:00:29;100673.53;;;9.14;83.79
48926;BME280;39838;59.938;30.642;2023-06-05T01:02:58;100677.06;;;9.22;83.42
48926;BME280;39838;59.938;30.642;2023-06-05T01:05:25;100684.91;;;9.30;83.16
48926;BME280;39838;59.938;30.642;2023-06-05T01:07:53;100682.38;;;9.38;83.24
48926;BME280;39838;59.938;30.642;2023-06-05T01:10:20;100678.97;;;9.45;83.28
48926;BME280;39838;59.938;30.642;2023-06-05T01:12:52;100683.34;;;9.52;83.14
48926;BME280;39838;59.938;30.642;2023-06-05T01:15:23;100688.56;;;9.58;83.01
48926;BME280;39838;59.938;30.642;2023-06-05T01:17:55;100682.56;;;9.62;81.97
48926;BME280;39838;59.938;30.642;2023-06-05T01:20:31;100676.47;;;9.62;82.07
48926;BME280;39838;59.938;30.642;2023-06-05T01:23:01;100686.91;;;9.66;82.15
48926;BME280;39838;59.938;30.642;2023-06-05T01:25:28;100682.56;;;9.68;82.65
48926;BME280;39838;59.938;30.642;2023-06-05T01:28:02;100692.09;;;9.68;82.14
48926;BME280;39838;59.938;30.642;2023-06-05T01:30:37;100691.25;;;9.70;82.90
48926;BME280;39838;59.938;30.642;2023-06-05T01:33:11;100691.25;;;9.69;82.40
48926;BME280;39838;59.938;30.642;2023-06-05T01:35:40;100688.66;;;9.72;82.89
48926;BME280;39838;59.938;30.642;2023-06-05T01:38:12;100672.19;;;9.65;83.23
48926;BME280;39838;59.938;30.642;2023-06-05T01:40:41;100688.75;;;9.82;82.92
48926;BME280;39838;59.938;30.642;2023-06-05T01:43:09;100693.94;;;9.87;82.78
48926;BME280;39838;59.938;30.642;2023-06-05T01:45:38;100693.06;;;9.87;82.29
48926;BME280;39838;59.938;30.642;2023-06-05T01:48:07;100690.47;;;9.85;82.85
48926;BME280;39838;59.938;30.642;2023-06-05T01:50:36;100695.66;;;9.88;82.91
48926;BME280;39838;59.938;30.642;2023-06-05T01:53:04;100691.38;;;9.92;82.09
48926;BME280;39838;59.938;30.642;2023-06-05T01:55:34;100691.38;;;9.95;83.12
48926;BME280;39838;59.938;30.642;2023-06-05T01:58:04;100689.69;;;9.97;82.46
48926;BME280;39838;59.938;30.642;2023-06-05T02:00:32;100698.34;;;10.02;82.77
48926;BME280;39838;59.938;30.642;2023-06-05T02:03:01;100696.66;;;10.08;82.99
48926;BME280;39838;59.938;30.642;2023-06-05T02:05:28;100679.31;;;10.01;82.84
48926;BME280;39838;59.938;30.642;2023-06-05T02:07:55;100704.50;;;10.22;82.36
48926;BME280;39838;59.938;30.642;2023-06-05T02:10:24;100707.19;;;10.30;82.50
48926;BME280;39838;59.938;30.642;2023-06-05T02:12:53;100707.19;;;10.33;82.76
48926;BME280;39838;59.938;30.642;2023-06-05T02:15:20;100704.63;;;10.37;82.12
48926;BME280;39838;59.938;30.642;2023-06-05T02:17:49;100706.34;;;10.42;81.96
48926;BME280;39838;59.938;30.642;2023-06-05T02:20:23;100689.88;;;10.30;81.75
48926;BME280;39838;59.938;30.642;2023-06-05T02:22:50;100708.97;;;10.45;82.23
48926;BME280;39838;59.938;30.642;2023-06-05T02:25:18;100706.38;;;10.49;81.68
48926;BME280;39838;59.938;30.642;2023-06-05T02:27:46;100716.81;;;10.54;81.70
48926;BME280;39838;59.938;30.642;2023-06-05T02:30:15;100717.66;;;10.56;81.11
48926;BME280;39838;59.938;30.642;2023-06-05T02:32:42;100714.22;;;10.60;80.00
48926;BME280;39838;59.938;30.642;2023-06-05T02:35:11;100699.47;;;10.54;79.38
48926;BME280;39838;59.938;30.642;2023-06-05T02:37:39;100722.91;;;10.65;78.71
48926;BME280;39838;59.938;30.642;2023-06-05T02:40:10;100715.09;;;10.62;77.73
48926;BME280;39838;59.938;30.642;2023-06-05T02:42:37;100719.44;;;10.69;77.81
48926;BME280;39838;59.938;30.642;2023-06-05T02:45:06;100725.56;;;10.77;77.11
48926;BME280;39838;59.938;30.642;2023-06-05T02:47:35;100719.50;;;10.87;75.98
48926;BME280;39838;59.938;30.642;2023-06-05T02:50:02;100713.41;;;10.90;75.68
48926;BME280;39838;59.938;30.642;2023-06-05T02:52:30;100716.91;;;11.01;75.36
48926;BME280;39838;59.938;30.642;2023-06-05T02:55:00;100714.31;;;11.03;74.58
48926;BME280;39838;59.938;30.642;2023-06-05T02:57:30;100734.28;;;11.13;74.16
48926;BME280;39838;59.938;30.642;2023-06-05T02:59:59;100729.94;;;11.21;73.06
48926;BME280;39838;59.938;30.642;2023-06-05T03:02:31;100740.38;;;11.27;72.48
48926;BME280;39838;59.938;30.642;2023-06-05T03:05:03;100741.22;;;11.31;71.84
48926;BME280;39838;59.938;30.642;2023-06-05T03:07:30;100740.34;;;11.29;70.72
48926;BME280;39838;59.938;30.642;2023-06-05T03:09:59;100743.84;;;11.18;69.75
48926;BME280;39838;59.938;30.642;2023-06-05T03:12:27;100719.50;;;11.03;69.20
48926;BME280;39838;59.938;30.642;2023-06-05T03:14:54;100720.38;;;11.00;68.90
48926;BME280;39838;59.938;30.642;2023-06-05T03:17:21;100742.06;;;11.16;68.68
48926;BME280;39838;59.938;30.642;2023-06-05T03:19:49;100748.13;;;11.16;67.83
48926;BME280;39838;59.938;30.642;2023-06-05T03:22:18;100741.22;;;11.20;67.68
48926;BME280;39838;59.938;30.642;2023-06-05T03:24:46;100740.34;;;11.24;67.51
48926;BME280;39838;59.938;30.642;2023-06-05T03:27:13;100722.16;;;11.18;67.02
48926;BME280;39838;59.938;30.642;2023-06-05T03:29:40;100743.84;;;11.38;65.93
48926;BME280;39838;59.938;30.642;2023-06-05T03:32:09;100716.09;;;11.31;65.33
48926;BME280;39838;59.938;30.642;2023-06-05T03:34:37;100742.09;;;11.49;65.13
48926;BME280;39838;59.938;30.642;2023-06-05T03:37:08;100736.91;;;11.53;65.15
48926;BME280;39838;59.938;30.642;2023-06-05T03:39:37;100741.22;;;11.57;64.95
48926;BME280;39838;59.938;30.642;2023-06-05T03:42:04;100744.69;;;11.65;64.43
48926;BME280;39838;59.938;30.642;2023-06-05T03:44:34;100738.63;;;11.67;63.91
48926;BME280;39838;59.938;30.642;2023-06-05T03:47:03;100731.66;;;11.71;63.12
48926;BME280;39838;59.938;30.642;2023-06-05T03:49:31;100737.75;;;11.76;62.19
48926;BME280;39838;59.938;30.642;2023-06-05T03:51:58;100735.16;;;11.85;61.20
48926;BME280;39838;59.938;30.642;2023-06-05T03:54:29;100736.88;;;11.91;59.99
48926;BME280;39838;59.938;30.642;2023-06-05T03:57:00;100737.75;;;11.96;59.79
48926;BME280;39838;59.938;30.642;2023-06-05T03:59:28;100731.66;;;12.01;59.73
48926;BME280;39838;59.938;30.642;2023-06-05T04:01:55;100732.50;;;12.05;59.31
48926;BME280;39838;59.938;30.642;2023-06-05T04:04:23;100735.97;;;12.18;59.12
48926;BME280;39838;59.938;30.642;2023-06-05T04:06:53;100737.69;;;12.19;57.85
48926;BME280;39838;59.938;30.642;2023-06-05T04:09:21;100740.28;;;12.23;56.88
48926;BME280;39838;59.938;30.642;2023-06-05T04:11:48;100730.75;;;12.27;56.38
48926;BME280;39838;59.938;30.642;2023-06-05T04:14:18;100734.19;;;12.34;55.87
48926;BME280;39838;59.938;30.642;2023-06-05T04:16:45;100741.09;;;12.38;55.57
48926;BME280;39838;59.938;30.642;2023-06-05T04:19:13;100733.28;;;12.41;54.71
48926;BME280;39838;59.938;30.642;2023-06-05T04:21:40;100740.16;;;12.58;54.80
48926;BME280;39838;59.938;30.642;2023-06-05T04:24:08;100748.75;;;12.79;54.15
48926;BME280;39838;59.938;30.642;2023-06-05T04:26:37;100735.63;;;12.96;53.67
48926;BME280;39838;59.938;30.642;2023-06-05T04:29:05;100734.69;;;13.09;52.04
48926;BME280;39838;59.938;30.642;2023-06-05T04:31:41;100738.06;;;13.19;52.04
48926;BME280;39838;59.938;30.642;2023-06-05T04:34:08;100738.06;;;13.26;51.09
48926;BME280;39838;59.938;30.642;2023-06-05T04:36:35;100745.84;;;13.35;50.16
48926;BME280;39838;59.938;30.642;2023-06-05T04:39:04;100748.38;;;13.43;49.65
48926;BME280;39838;59.938;30.642;2023-06-05T04:41:33;100738.78;;;13.45;49.34
48926;BME280;39838;59.938;30.642;2023-06-05T04:44:02;100744.78;;;13.56;51.41
48926;BME280;39838;59.938;30.642;2023-06-05T04:46:29;100750.00;;;13.56;52.10
48926;BME280;39838;59.938;30.642;2023-06-05T04:48:58;100741.25;;;13.60;53.05
48926;BME280;39838;59.938;30.642;2023-06-05T04:51:25;100745.59;;;13.61;52.72
48926;BME280;39838;59.938;30.642;2023-06-05T04:53:52;100748.22;;;13.61;52.23
48926;BME280;39838;59.938;30.642;2023-06-05T04:56:21;100749.06;;;13.65;52.35
48926;BME280;39838;59.938;30.642;2023-06-05T04:58:49;100742.91;;;13.75;52.42
48926;BME280;39838;59.938;30.642;2023-06-05T05:01:17;100754.06;;;13.91;52.34
48926;BME280;39838;59.938;30.642;2023-06-05T05:03:45;100747.81;;;14.04;52.50
48926;BME280;39838;59.938;30.642;2023-06-05T05:06:16;100747.72;;;14.13;52.10
48926;BME280;39838;59.938;30.642;2023-06-05T05:08:43;100756.34;;;14.23;52.25
48926;BME280;39838;59.938;30.642;2023-06-05T05:11:11;100751.00;;;14.32;51.98
48926;BME280;39838;59.938;30.642;2023-06-05T05:13:39;100760.47;;;14.41;51.82
48926;BME280;39838;59.938;30.642;2023-06-05T05:16:06;100749.13;;;14.42;51.18
48926;BME280;39838;59.938;30.642;2023-06-05T05:18:34;100750.88;;;14.41;51.76
48926;BME280;39838;59.938;30.642;2023-06-05T05:21:02;100740.53;;;14.34;53.05
48926;BME280;39838;59.938;30.642;2023-06-05T05:23:32;100749.28;;;14.31;53.80
48926;BME280;39838;59.938;30.642;2023-06-05T05:25:59;100741.38;;;14.37;54.16
48926;BME280;39838;59.938;30.642;2023-06-05T05:28:27;100741.25;;;14.48;54.87
48926;BME280;39838;59.938;30.642;2023-06-05T05:30:54;100742.13;;;14.50;55.31
48926;BME280;39838;59.938;30.642;2023-06-05T05:33:23;100736.88;;;14.52;55.11
48926;BME280;39838;59.938;30.642;2023-06-05T05:35:50;100739.50;;;14.50;55.28
48926;BME280;39838;59.938;30.642;2023-06-05T05:38:18;100747.38;;;14.42;55.39
48926;BME280;39838;59.938;30.642;2023-06-05T05:40:46;100741.28;;;14.46;55.94
48926;BME280;39838;59.938;30.642;2023-06-05T05:43:13;100746.47;;;14.48;55.54
48926;BME280;39838;59.938;30.642;2023-06-05T05:45:41;100740.38;;;14.49;55.38
48926;BME280;39838;59.938;30.642;2023-06-05T05:48:09;100745.53;;;14.54;56.00
48926;BME280;39838;59.938;30.642;2023-06-05T05:50:36;100740.31;;;14.54;56.07
48926;BME280;39838;59.938;30.642;2023-06-05T05:53:04;100745.63;;;14.47;55.82
48926;BME280;39838;59.938;30.642;2023-06-05T05:55:31;100735.19;;;14.41;55.29
48926;BME280;39838;59.938;30.642;2023-06-05T05:57:59;100737.13;;;14.26;55.93
48926;BME280;39838;59.938;30.642;2023-06-05T06:00:27;100732.94;;;14.11;56.09
48926;BME280;39838;59.938;30.642;2023-06-05T06:02:54;100720.06;;;13.94;55.97
48926;BME280;39838;59.938;30.642;2023-06-05T06:05:21;100738.41;;;13.89;56.50
48926;BME280;39838;59.938;30.642;2023-06-05T06:07:48;100741.81;;;13.96;57.02
48926;BME280;39838;59.938;30.642;2023-06-05T06:10:15;100734.84;;;13.97;55.79
48926;BME280;39838;59.938;30.642;2023-06-05T06:12:44;100734.84;;;13.93;55.88
48926;BME280;39838;59.938;30.642;2023-06-05T06:15:12;100740.88;;;14.00;54.86
48926;BME280;39838;59.938;30.642;2023-06-05T06:17:39;100745.03;;;14.23;55.71
48926;BME280;39838;59.938;30.642;2023-06-05T06:20:07;100741.28;;;14.43;53.65
48926;BME280;39838;59.938;30.642;2023-06-05T06:22:38;100736.78;;;14.56;53.03
48926;BME280;39838;59.938;30.642;2023-06-05T06:25:07;100758.66;;;14.51;52.72
48926;BME280;39838;59.938;30.642;2023-06-05T06:27:35;100758.69;;;14.47;53.32
48926;BME280;39838;59.938;30.642;2023-06-05T06:30:02;100756.84;;;14.56;52.90
48926;BME280;39838;59.938;30.642;2023-06-05T06:32:33;100752.47;;;14.56;51.56
48926;BME280;39838;59.938;30.642;2023-06-05T06:35:00;100756.03;;;14.52;51.53
48926;BME280;39838;59.938;30.642;2023-06-05T06:37:32;100751.72;;;14.46;51.13
48926;BME280;39838;59.938;30.642;2023-06-05T06:39:59;100759.56;;;14.50;50.71
48926;BME280;39838;59.938;30.642;2023-06-05T06:42:26;100767.44;;;14.43;51.22
48926;BME280;39838;59.938;30.642;2023-06-05T06:44:54;100752.59;;;14.47;51.06
48926;BME280;39838;59.938;30.642;2023-06-05T06:47:22;100758.66;;;14.52;51.21
48926;BME280;39838;59.938;30.642;2023-06-05T06:49:51;100761.97;;;14.65;51.28
48926;BME280;39838;59.938;30.642;2023-06-05T06:52:19;100763.53;;;14.80;51.82
48926;BME280;39838;59.938;30.642;2023-06-05T06:54:46;100762.47;;;14.93;49.55
48926;BME280;39838;59.938;30.642;2023-06-05T06:57:13;100777.25;;;14.95;48.43
48926;BME280;39838;59.938;30.642;2023-06-05T06:59:40;100752.81;;;14.98;47.50
48926;BME280;39838;59.938;30.642;2023-06-05T07:02:09;100760.38;;;15.16;47.77
48926;BME280;39838;59.938;30.642;2023-06-05T07:04:37;100763.56;;;15.37;47.62
48926;BME280;39838;59.938;30.642;2023-06-05T07:07:07;100746.03;;;15.42;47.22
48926;BME280;39838;59.938;30.642;2023-06-05T07:09:34;100751.19;;;15.48;47.42
48926;BME280;39838;59.938;30.642;2023-06-05T07:12:02;100758.28;;;15.40;47.77
48926;BME280;39838;59.938;30.642;2023-06-05T07:14:31;100757.50;;;15.35;48.08
48926;BME280;39838;59.938;30.642;2023-06-05T07:16:59;100758.31;;;15.37;47.94
48926;BME280;39838;59.938;30.642;2023-06-05T07:19:27;100744.38;;;15.36;47.75
48926;BME280;39838;59.938;30.642;2023-06-05T07:21:55;100734.03;;;15.28;48.06
48926;BME280;39838;59.938;30.642;2023-06-05T07:24:24;100752.28;;;15.33;48.14
48926;BME280;39838;59.938;30.642;2023-06-05T07:26:54;100750.38;;;15.43;48.06
48926;BME280;39838;59.938;30.642;2023-06-05T07:29:22;100724.22;;;15.41;47.96
48926;BME280;39838;59.938;30.642;2023-06-05T07:31:50;100754.44;;;15.65;47.32
48926;BME280;39838;59.938;30.642;2023-06-05T07:34:18;100752.56;;;15.70;47.28
48926;BME280;39838;59.938;30.642;2023-06-05T07:36:47;100734.41;;;15.60;47.18
48926;BME280;39838;59.938;30.642;2023-06-05T07:39:15;100737.00;;;15.63;47.16
48926;BME280;39838;59.938;30.642;2023-06-05T07:41:43;100750.06;;;15.64;47.11
48926;BME280;39838;59.938;30.642;2023-06-05T07:44:13;100736.09;;;15.65;47.30
48926;BME280;39838;59.938;30.642;2023-06-05T07:46:40;100745.69;;;15.66;47.35
48926;BME280;39838;59.938;30.642;2023-06-05T07:49:07;100748.22;;;15.69;45.52
48926;BME280;39838;59.938;30.642;2023-06-05T07:51:36;100757.06;;;15.65;44.83
48926;BME280;39838;59.938;30.642;2023-06-05T07:54:07;100762.34;;;15.57;44.17
48926;BME280;39838;59.938;30.642;2023-06-05T07:56:34;100771.91;;;15.63;44.27
48926;BME280;39838;59.938;30.642;2023-06-05T07:59:04;100761.50;;;15.57;43.94
48926;BME280;39838;59.938;30.642;2023-06-05T08:01:32;100755.47;;;15.53;44.11
48926;BME280;39838;59.938;30.642;2023-06-05T08:04:02;100753.59;;;15.60;45.34
48926;BME280;39838;59.938;30.642;2023-06-05T08:06:30;100746.44;;;15.71;45.12
48926;BME280;39838;59.938;30.642;2023-06-05T08:09:04;100762.84;;;15.82;43.98
48926;BME280;39838;59.938;30.642;2023-06-05T08:11:32;100755.84;;;15.83;41.17
48926;BME280;39838;59.938;30.642;2023-06-05T08:13:59;100759.34;;;15.83;41.24
48926;BME280;39838;59.938;30.642;2023-06-05T08:16:28;100769.66;;;15.91;41.27
48926;BME280;39838;59.938;30.642;2023-06-05T08:18:55;100788.00;;;15.93;40.97
48926;BME280;39838;59.938;30.642;2023-06-05T08:21:22;100758.47;;;15.83;40.69
48926;BME280;39838;59.938;30.642;2023-06-05T08:23:50;100777.09;;;15.66;41.13
48926;BME280;39838;59.938;30.642;2023-06-05T08:26:18;100752.78;;;15.56;41.25
48926;BME280;39838;59.938;30.642;2023-06-05T08:28:46;100755.31;;;15.63;41.63
48926;BME280;39838;59.938;30.642;2023-06-05T08:31:13;100756.16;;;15.66;42.28
48926;BME280;39838;59.938;30.642;2023-06-05T08:33:43;100755.19;;;15.70;42.18
48926;BME280;39838;59.938;30.642;2023-06-05T08:36:10;100755.06;;;15.79;42.31
48926;BME280;39838;59.938;30.642;2023-06-05T08:38:37;100749.69;;;15.87;43.42
48926;BME280;39838;59.938;30.642;2023-06-05T08:41:06;100763.47;;;15.97;43.06
48926;BME280;39838;59.938;30.642;2023-06-05T08:43:36;100773.94;;;15.97;42.74
48926;BME280;39838;59.938;30.642;2023-06-05T08:46:04;100745.97;;;15.99;42.68
48926;BME280;39838;59.938;30.642;2023-06-05T08:48:33;100770.13;;;16.15;42.54
48926;BME280;39838;59.938;30.642;2023-06-05T08:51:07;100739.47;;;16.18;42.76
48926;BME280;39838;59.938;30.642;2023-06-05T08:53:38;100759.19;;;16.37;41.24
48926;BME280;39838;59.938;30.642;2023-06-05T08:56:06;100754.97;;;16.30;41.70
48926;BME280;39838;59.938;30.642;2023-06-05T08:58:34;100755.16;;;16.21;42.39
48926;BME280;39838;59.938;30.642;2023-06-05T09:01:02;100761.38;;;16.16;42.43
48926;BME280;39838;59.938;30.642;2023-06-05T09:03:32;100752.56;;;16.18;42.53
48926;BME280;39838;59.938;30.642;2023-06-05T09:05:59;100754.38;;;16.16;42.37
48926;BME280;39838;59.938;30.642;2023-06-05T09:08:30;100755.13;;;16.23;41.74
48926;BME280;39838;59.938;30.642;2023-06-05T09:11:24;100762.03;;;16.27;41.70
48926;BME280;39838;59.938;30.642;2023-06-05T09:13:53;100755.66;;;16.40;40.34
48926;BME280;39838;59.938;30.642;2023-06-05T09:16:22;100756.47;;;16.44;40.28
48926;BME280;39838;59.938;30.642;2023-06-05T09:18:54;100752.72;;;16.55;40.78
48926;BME280;39838;59.938;30.642;2023-06-05T09:21:23;100747.34;;;16.61;41.16
48926;BME280;39838;59.938;30.642;2023-06-05T09:24:10;100741.25;;;16.61;40.32
48926;BME280;39838;59.938;30.642;2023-06-05T09:26:49;100763.91;;;16.63;40.46
48926;BME280;39838;59.938;30.642;2023-06-05T09:29:22;100750.72;;;16.68;40.25
48926;BME280;39838;59.938;30.642;2023-06-05T09:31:50;100746.28;;;16.72;40.49
48926;BME280;39838;59.938;30.642;2023-06-05T09:34:24;100742.41;;;16.89;40.73
48926;BME280;39838;59.938;30.642;2023-06-05T09:36:51;100747.84;;;17.21;40.38
48926;BME280;39838;59.938;30.642;2023-06-05T09:39:22;100736.84;;;17.40;39.66
48926;BME280;39838;59.938;30.642;2023-06-05T09:41:50;100734.97;;;17.45;39.80
48926;BME280;39838;59.938;30.642;2023-06-05T09:44:18;100745.25;;;17.55;40.30
48926;BME280;39838;59.938;30.642;2023-06-05T09:46:54;100726.41;;;17.37;39.78
48926;BME280;39838;59.938;30.642;2023-06-05T09:49:23;100745.09;;;17.61;40.43
48926;BME280;39838;59.938;30.642;2023-06-05T09:51:50;100746.63;;;17.71;40.07
48926;BME280;39838;59.938;30.642;2023-06-05T09:54:19;100722.25;;;17.64;40.17
48926;BME280;39838;59.938;30.642;2023-06-05T09:56:49;100744.94;;;17.67;40.22
48926;BME280;39838;59.938;30.642;2023-06-05T09:59:19;100740.81;;;17.57;40.22
48926;BME280;39838;59.938;30.642;2023-06-05T10:01:51;100738.53;;;17.43;40.53
48926;BME280;39838;59.938;30.642;2023-06-05T10:04:20;100739.47;;;17.40;41.08
48926;BME280;39838;59.938;30.642;2023-06-05T10:06:49;100736.28;;;17.63;41.25
48926;BME280;39838;59.938;30.642;2023-06-05T10:09:16;100744.50;;;17.85;40.63
48926;BME280;39838;59.938;30.642;2023-06-05T10:11:49;100745.91;;;17.98;41.17
48926;BME280;39838;59.938;30.642;2023-06-05T10:14:18;100734.44;;;18.01;41.11
48926;BME280;39838;59.938;30.642;2023-06-05T10:16:48;100732.59;;;18.05;41.02
48926;BME280;39838;59.938;30.642;2023-06-05T10:19:17;100734.31;;;18.06;40.90
48926;BME280;39838;59.938;30.642;2023-06-05T10:21:46;100753.03;;;17.93;41.08
48926;BME280;39838;59.938;30.642;2023-06-05T10:24:17;100771.16;;;18.04;41.06
48926;BME280;39838;59.938;30.642;2023-06-05T10:27:14;100763.88;;;17.81;40.91
48926;BME280;39838;59.938;30.642;2023-06-05T10:29:57;100761.84;;;17.57;41.19
48926;BME280;39838;59.938;30.642;2023-06-05T10:32:36;100777.97;;;17.41;41.00
48926;BME280;39838;59.938;30.642;2023-06-05T10:35:08;100766.19;;;17.22;41.74
48926;BME280;39838;59.938;30.642;2023-06-05T10:37:51;100764.28;;;17.29;42.09
48926;BME280;39838;59.938;30.642;2023-06-05T10:40:24;100743.03;;;17.38;42.04
48926;BME280;39838;59.938;30.642;2023-06-05T10:42:53;100760.63;;;17.34;41.61
48926;BME280;39838;59.938;30.642;2023-06-05T10:45:30;100768.44;;;17.37;41.52
48926;BME280;39838;59.938;30.642;2023-06-05T10:47:58;100742.94;;;17.42;41.64
48926;BME280;39838;59.938;30.642;2023-06-05T10:50:28;100749.63;;;17.54;42.01
48926;BME280;39838;59.938;30.642;2023-06-05T10:52:57;100751.34;;;17.57;41.85
48926;BME280;39838;59.938;30.642;2023-06-05T10:55:41;100755.72;;;17.56;41.97
48926;BME280;39838;59.938;30.642;2023-06-05T10:58:11;100748.75;;;17.54;41.78
48926;BME280;39838;59.938;30.642;2023-06-05T11:03:56;100747.72;;;17.25;42.77
48926;BME280;39838;59.938;30.642;2023-06-05T11:06:24;100749.75;;;17.50;42.92
48926;BME280;39838;59.938;30.642;2023-06-05T11:09:08;100761.38;;;17.39;43.41
48926;BME280;39838;59.938;30.642;2023-06-05T11:11:54;100746.94;;;17.22;43.66
48926;BME280;39838;59.938;30.642;2023-06-05T11:14:23;100738.72;;;16.98;44.03
48926;BME280;39838;59.938;30.642;2023-06-05T11:16:50;100761.41;;;17.01;44.79
48926;BME280;39838;59.938;30.642;2023-06-05T11:19:36;100749.47;;;16.87;45.00
48926;BME280;39838;59.938;30.642;2023-06-05T11:22:06;100745.97;;;16.87;45.46
48926;BME280;39838;59.938;30.642;2023-06-05T11:24:35;100747.88;;;16.80;45.76
48926;BME280;39838;59.938;30.642;2023-06-05T11:27:03;100758.06;;;16.51;45.79
48926;BME280;39838;59.938;30.642;2023-06-05T11:29:33;100741.97;;;16.24;46.26
48926;BME280;39838;59.938;30.642;2023-06-05T11:32:00;100725.66;;;16.10;46.46
48926;BME280;39838;59.938;30.642;2023-06-05T11:34:38;100750.03;;;16.15;46.49
48926;BME280;39838;59.938;30.642;2023-06-05T11:37:18;100756.25;;;16.09;46.13
48926;BME280;39838;59.938;30.642;2023-06-05T11:39:47;100773.13;;;15.95;45.94
48926;BME280;39838;59.938;30.642;2023-06-05T11:42:22;100780.53;;;15.70;45.99
48926;BME280;39838;59.938;30.642;2023-06-05T11:44:51;100745.69;;;15.66;46.38
48926;BME280;39838;59.938;30.642;2023-06-05T11:47:25;100741.31;;;15.67;46.56
48926;BME280;39838;59.938;30.642;2023-06-05T11:49:54;100739.53;;;15.67;46.72
48926;BME280;39838;59.938;30.642;2023-06-05T11:52:21;100731.34;;;15.87;46.32
48926;BME280;39838;59.938;30.642;2023-06-05T11:54:48;100722.59;;;15.88;46.14
48926;BME280;39838;59.938;30.642;2023-06-05T11:57:39;100739.34;;;15.78;45.85
48926;BME280;39838;59.938;30.642;2023-06-05T12:00:09;100738.50;;;15.76;46.05
48926;BME280;39838;59.938;30.642;2023-06-05T12:02:37;100711.47;;;15.75;46.39
48926;BME280;39838;59.938;30.642;2023-06-05T12:05:05;100733.16;;;15.82;46.24
48926;BME280;39838;59.938;30.642;2023-06-05T12:07:33;100720.75;;;15.92;46.57
48926;BME280;39838;59.938;30.642;2023-06-05T12:10:03;100734.22;;;16.18;46.20
48926;BME280;39838;59.938;30.642;2023-06-05T12:12:31;100738.81;;;16.52;45.45
48926;BME280;39838;59.938;30.642;2023-06-05T12:15:15;100716.66;;;17.05;44.62
48926;BME280;39838;59.938;30.642;2023-06-05T12:17:48;100709.34;;;17.55;43.67
48926;BME280;39838;59.938;30.642;2023-06-05T12:20:16;100727.22;;;18.09;43.14
48926;BME280;39838;59.938;30.642;2023-06-05T12:22:43;100710.66;;;18.68;42.45
48926;BME280;39838;59.938;30.642;2023-06-05T12:25:17;100720.69;;;19.13;41.12
48926;BME280;39838;59.938;30.642;2023-06-05T12:27:46;100723.13;;;19.19;40.72
48926;BME280;39838;59.938;30.642;2023-06-05T12:30:16;100722.63;;;19.34;39.70
48926;BME280;39838;59.938;30.642;2023-06-05T12:32:43;100737.22;;;19.44;39.48
48926;BME280;39838;59.938;30.642;2023-06-05T12:35:18;100722.97;;;19.50;38.89
48926;BME280;39838;59.938;30.642;2023-06-05T12:37:47;100757.88;;;19.56;38.68
48926;BME280;39838;59.938;30.642;2023-06-05T12:40:15;100721.84;;;19.58;38.72
48926;BME280;39838;59.938;30.642;2023-06-05T12:42:47;100745.69;;;19.80;38.21
48926;BME280;39838;59.938;30.642;2023-06-05T12:45:16;100737.16;;;19.99;38.41
48926;BME280;39838;59.938;30.642;2023-06-05T12:47:44;100741.31;;;20.54;38.13
48926;BME280;39838;59.938;30.642;2023-06-05T12:50:12;100738.22;;;20.66;36.24
48926;BME280;39838;59.938;30.642;2023-06-05T12:52:39;100751.66;;;20.60;37.01
48926;BME280;39838;59.938;30.642;2023-06-05T12:55:08;100724.63;;;20.54;36.98